createdAt,value
2022-12-01T00:01:20.970Z,22.80
2022-12-01T00:03:48.188Z,23.20
2022-12-01T00:06:18.118Z,23.58
2022-12-01T00:09:06.890Z,24.20
2022-12-01T00:11:35.859Z,21.73
2022-12-01T00:14:03.572Z,21.58
2022-12-01T00:16:31.125Z,22.10
2022-12-01T00:18:58.670Z,21.67
2022-12-01T00:21:27.404Z,23.38
2022-12-01T00:23:56.994Z,21.02
2022-12-01T00:26:25.579Z,22.40
2022-12-01T00:28:54.563Z,20.73
2022-12-01T00:31:22.366Z,21.67
2022-12-01T00:33:49.980Z,22.77
2022-12-01T00:36:17.648Z,21.75
2022-12-01T00:38:44.933Z,21.98
2022-12-01T00:41:12.456Z,21.95
2022-12-01T00:43:40.111Z,22.60
2022-12-01T00:46:08.116Z,22.40
2022-12-01T00:48:35.338Z,21.88
2022-12-01T00:51:03.435Z,23.70
2022-12-01T00:53:31.338Z,22.55
2022-12-01T00:55:58.692Z,22.40
2022-12-01T00:58:26.251Z,23.50
2022-12-01T01:01:01.778Z,23.98
2022-12-01T01:03:30.817Z,22.55
2022-12-01T01:06:05.084Z,23.13
2022-12-01T01:08:32.483Z,23.65
2022-12-01T01:11:01.648Z,22.83
2022-12-01T01:13:29.872Z,20.90
2022-12-01T01:16:06.241Z,22.50
2022-12-01T01:18:34.384Z,22.05
2022-12-01T01:21:07.944Z,21.83
2022-12-01T01:23:38.083Z,22.85
2022-12-01T01:26:08.390Z,20.85
2022-12-01T01:28:36.303Z,21.52
2022-12-01T01:31:08.041Z,21.67
2022-12-01T01:33:35.618Z,21.75
2022-12-01T01:36:03.670Z,21.17
2022-12-01T01:38:31.844Z,21.40
2022-12-01T01:40:59.275Z,20.55
2022-12-01T01:43:41.420Z,21.83
2022-12-01T01:46:11.961Z,21.88
2022-12-01T01:48:41.752Z,21.60
2022-12-01T01:51:10.627Z,21.33
2022-12-01T01:53:38.238Z,20.75
2022-12-01T01:56:07.747Z,20.48
2022-12-01T01:58:36.973Z,20.75
2022-12-01T02:01:04.493Z,18.77
2022-12-01T02:03:32.959Z,20.30
2022-12-01T02:06:04.644Z,19.58
2022-12-01T02:08:35.506Z,19.92
2022-12-01T02:11:33.192Z,20.38
2022-12-01T02:14:17.705Z,19.40
2022-12-01T02:16:57.684Z,19.85
2022-12-01T02:19:46.313Z,19.63
2022-12-01T02:22:27.690Z,20.42
2022-12-01T02:25:11.466Z,20.35
2022-12-01T02:27:57.395Z,20.50
2022-12-01T02:30:42.469Z,19.20
2022-12-01T02:33:24.128Z,18.08
2022-12-01T02:36:20.750Z,20.13
2022-12-01T02:39:02.524Z,19.60
2022-12-01T02:41:37.098Z,18.98
2022-12-01T02:44:22.347Z,19.58
2022-12-01T02:46:57.982Z,18.83
2022-12-01T02:49:32.660Z,18.65
2022-12-01T02:52:01.081Z,18.77
2022-12-01T02:54:31.700Z,17.52
2022-12-01T02:56:59.020Z,17.48
2022-12-01T02:59:26.343Z,18.52
2022-12-01T03:02:24.813Z,18.60
2022-12-01T03:05:31.023Z,20.23
2022-12-01T03:08:27.112Z,18.85
2022-12-01T03:10:57.380Z,17.60
2022-12-01T03:13:39.551Z,19.00
2022-12-01T03:16:32.500Z,18.90
2022-12-01T03:19:27.314Z,21.00
2022-12-01T03:22:17.496Z,21.48
2022-12-01T03:27:18.971Z,20.75
2022-12-01T03:29:50.826Z,22.77
2022-12-01T03:32:28.392Z,22.70
2022-12-01T03:35:47.991Z,21.98
2022-12-01T03:38:28.057Z,23.00
2022-12-01T03:41:12.702Z,21.58
2022-12-01T03:43:45.406Z,22.60
2022-12-01T03:46:54.282Z,24.92
2022-12-01T03:49:24.926Z,23.88
2022-12-01T03:52:28.685Z,23.40
2022-12-01T03:55:21.271Z,22.90
2022-12-01T03:57:58.839Z,23.95
2022-12-01T04:00:27.093Z,25.67
2022-12-01T04:02:56.842Z,25.65
2022-12-01T04:05:25.583Z,24.73
2022-12-01T04:07:53.748Z,25.25
2022-12-01T04:10:21.531Z,26.05
2022-12-01T04:12:48.993Z,26.38
2022-12-01T04:15:17.100Z,26.00
2022-12-01T04:17:45.211Z,27.35
2022-12-01T04:20:15.219Z,26.38
2022-12-01T04:22:42.463Z,25.88
2022-12-01T04:25:10.232Z,26.23
2022-12-01T04:27:38.344Z,27.00
2022-12-01T04:30:07.649Z,26.70
2022-12-01T04:32:44.405Z,26.40
2022-12-01T04:35:13.071Z,28.17
2022-12-01T04:37:40.329Z,26.55
2022-12-01T04:40:08.778Z,26.35
2022-12-01T04:42:35.972Z,27.73
2022-12-01T04:45:03.745Z,27.75
2022-12-01T04:47:30.875Z,26.90
2022-12-01T04:49:58.177Z,28.35
2022-12-01T04:52:26.639Z,27.83
2022-12-01T04:57:22.679Z,26.80
2022-12-01T04:59:50.076Z,26.45
2022-12-01T05:02:17.708Z,26.98
2022-12-01T05:04:48.330Z,26.75
2022-12-01T05:07:15.625Z,26.98
2022-12-01T05:09:42.781Z,25.67
2022-12-01T05:12:10.022Z,28.23
2022-12-01T05:14:37.369Z,26.48
2022-12-01T05:17:04.567Z,28.58
2022-12-01T05:19:50.480Z,27.17
2022-12-01T05:22:26.958Z,26.63
2022-12-01T05:25:05.287Z,26.80
2022-12-01T05:27:32.439Z,28.85
2022-12-01T05:29:59.642Z,27.15
2022-12-01T05:32:26.984Z,26.95
2022-12-01T05:34:54.188Z,26.98
2022-12-01T05:37:21.415Z,25.90
2022-12-01T05:39:49.028Z,25.65
2022-12-01T05:42:16.317Z,26.65
2022-12-01T05:44:43.546Z,26.58
2022-12-01T05:47:10.714Z,26.67
2022-12-01T05:49:37.988Z,26.00
2022-12-01T05:52:05.285Z,26.10
2022-12-01T05:54:32.432Z,26.55
2022-12-01T05:56:59.590Z,25.65
2022-12-01T05:59:26.848Z,24.30
2022-12-01T06:01:54.129Z,26.48
2022-12-01T06:04:21.386Z,25.23
2022-12-01T06:06:48.677Z,25.17
2022-12-01T06:09:16.324Z,23.63
2022-12-01T06:11:43.454Z,23.52
2022-12-01T06:14:10.677Z,22.95
2022-12-01T06:16:37.971Z,26.05
2022-12-01T06:19:05.242Z,24.30
2022-12-01T06:21:32.547Z,22.30
2022-12-01T06:23:59.977Z,22.48
2022-12-01T06:26:27.250Z,22.02
2022-12-01T06:28:54.554Z,22.58
2022-12-01T06:31:21.865Z,21.45
2022-12-01T06:33:49.159Z,22.15
2022-12-01T06:36:16.445Z,23.05
2022-12-01T06:38:43.626Z,22.45
2022-12-01T06:41:10.997Z,21.83
2022-12-01T06:43:38.753Z,22.38
2022-12-01T06:46:06.513Z,21.90
2022-12-01T06:48:34.704Z,21.23
2022-12-01T06:51:02.737Z,23.27
2022-12-01T06:53:30.241Z,21.63
2022-12-01T06:56:02.244Z,22.02
2022-12-01T06:58:29.901Z,23.52
2022-12-01T07:00:59.016Z,22.73
2022-12-01T07:03:26.988Z,25.02
2022-12-01T07:06:02.901Z,24.98
2022-12-01T07:08:31.639Z,24.85
2022-12-01T07:11:00.998Z,24.33
2022-12-01T07:13:33.487Z,25.17
2022-12-01T07:16:03.326Z,24.85
2022-12-01T07:18:31.485Z,25.00
2022-12-01T07:21:03.292Z,25.25
2022-12-01T07:23:31.017Z,27.15
2022-12-01T07:26:05.395Z,26.77
2022-12-01T07:28:33.350Z,27.42
2022-12-01T07:31:05.090Z,26.88
2022-12-01T07:33:32.753Z,25.10
2022-12-01T07:36:00.088Z,25.80
2022-12-01T07:38:32.178Z,27.15
2022-12-01T07:41:10.849Z,26.25
2022-12-01T07:43:38.698Z,25.98
2022-12-01T07:46:13.646Z,24.65
2022-12-01T07:48:43.534Z,25.38
2022-12-01T07:51:13.137Z,25.42
2022-12-01T07:53:40.544Z,25.05
2022-12-01T07:56:08.977Z,24.30
2022-12-01T07:58:37.079Z,25.45
2022-12-01T08:01:15.139Z,23.58
2022-12-01T08:03:43.111Z,23.77
2022-12-01T08:06:11.153Z,24.38
2022-12-01T08:08:40.944Z,23.67
2022-12-01T08:11:14.523Z,24.33
2022-12-01T08:13:43.088Z,23.75
2022-12-01T08:16:13.880Z,23.83
2022-12-01T08:18:42.676Z,24.65
2022-12-01T08:21:12.661Z,24.67
2022-12-01T08:23:39.979Z,24.45
2022-12-01T08:26:12.863Z,24.20
2022-12-01T08:28:40.791Z,25.00
2022-12-01T08:31:09.435Z,23.63
2022-12-01T08:33:37.227Z,25.10
2022-12-01T08:36:05.993Z,23.85
2022-12-01T08:38:33.701Z,25.05
2022-12-01T08:41:06.609Z,24.10
2022-12-01T08:43:56.630Z,26.45
2022-12-01T08:46:22.672Z,23.88
2022-12-01T08:48:49.905Z,23.52
2022-12-01T08:51:19.609Z,24.35
2022-12-01T08:53:49.644Z,21.98
2022-12-01T08:56:21.045Z,25.20
2022-12-01T08:58:48.699Z,25.15
2022-12-01T09:01:17.314Z,23.70
2022-12-01T09:03:45.147Z,23.88
2022-12-01T09:06:22.557Z,25.38
2022-12-01T09:08:49.748Z,23.13
2022-12-01T09:11:19.368Z,22.48
2022-12-01T09:13:52.966Z,22.33
2022-12-01T09:16:21.992Z,22.33
2022-12-01T09:18:49.515Z,21.77
2022-12-01T09:21:20.222Z,22.30
2022-12-01T09:23:48.079Z,22.17
2022-12-01T09:26:18.880Z,22.05
2022-12-01T09:28:47.550Z,21.80
2022-12-01T09:31:16.556Z,22.50
2022-12-01T09:33:43.911Z,22.75
2022-12-01T09:36:11.352Z,23.38
2022-12-01T09:38:39.821Z,23.67
2022-12-01T09:41:21.001Z,23.48
2022-12-01T09:44:10.843Z,24.10
2022-12-01T09:46:47.674Z,22.15
2022-12-01T09:49:23.277Z,20.70
2022-12-01T09:51:54.812Z,20.90
2022-12-01T09:54:22.255Z,20.83
2022-12-01T09:56:55.692Z,24.33
2022-12-01T09:59:35.909Z,30.08
2022-12-01T10:04:43.019Z,23.63
2022-12-01T10:07:24.583Z,22.23
2022-12-01T10:09:59.161Z,20.70
2022-12-01T10:12:34.235Z,21.90
2022-12-01T10:15:10.763Z,21.67
2022-12-01T10:18:06.006Z,22.40
2022-12-01T10:21:03.918Z,22.33
2022-12-01T10:24:02.979Z,24.83
2022-12-01T10:26:49.583Z,24.70
2022-12-01T10:29:47.605Z,24.67
2022-12-01T10:32:18.692Z,24.77
2022-12-01T10:34:48.219Z,26.52
2022-12-01T10:37:24.974Z,25.05
2022-12-01T10:39:55.275Z,25.20
2022-12-01T10:47:25.998Z,23.67
2022-12-01T10:49:53.546Z,23.80
2022-12-01T10:52:49.367Z,24.80
2022-12-01T10:55:36.671Z,22.45
2022-12-01T10:58:14.344Z,22.30
2022-12-01T11:00:59.712Z,21.42
2022-12-01T11:03:34.079Z,22.33
2022-12-01T11:06:04.944Z,23.00
2022-12-01T11:08:46.516Z,22.25
2022-12-01T11:11:29.152Z,21.95
2022-12-01T11:13:59.556Z,21.27
2022-12-01T11:16:42.878Z,22.30
2022-12-01T11:19:26.599Z,20.73
2022-12-01T11:22:00.673Z,21.20
2022-12-01T11:24:43.777Z,21.98
2022-12-01T11:27:19.017Z,22.33
2022-12-01T11:29:49.394Z,22.52
2022-12-01T11:32:30.827Z,22.05
2022-12-01T11:35:17.318Z,22.35
2022-12-01T11:38:13.357Z,22.95
2022-12-01T11:40:58.746Z,23.25
2022-12-01T11:43:34.172Z,22.75
2022-12-01T11:46:05.089Z,24.33
2022-12-01T11:48:37.527Z,23.30
2022-12-01T11:51:08.896Z,24.42
2022-12-01T11:53:43.756Z,23.33
2022-12-01T11:56:24.186Z,20.90
2022-12-01T11:59:13.835Z,21.15
2022-12-01T12:02:02.418Z,22.08
2022-12-01T12:04:32.776Z,21.15
2022-12-01T12:07:06.196Z,19.45
2022-12-01T12:09:52.717Z,21.48
2022-12-01T12:12:47.988Z,20.35
2022-12-01T12:18:19.746Z,19.27
2022-12-01T12:20:59.237Z,21.10
2022-12-01T12:23:32.716Z,20.38
2022-12-01T12:26:09.457Z,21.50
2022-12-01T12:28:52.390Z,20.90
2022-12-01T12:31:44.607Z,19.60
2022-12-01T12:34:25.984Z,22.30
2022-12-01T12:37:25.236Z,21.58
2022-12-01T12:40:27.226Z,19.98
2022-12-01T12:43:04.494Z,18.90
2022-12-01T12:45:53.636Z,20.13
2022-12-01T12:51:53.539Z,19.83
2022-12-01T12:54:43.846Z,19.60
2022-12-01T13:00:14.721Z,19.20
2022-12-01T13:02:47.833Z,18.88
2022-12-01T13:05:22.017Z,19.90
2022-12-01T13:07:59.026Z,19.15
2022-12-01T13:10:36.670Z,19.60
2022-12-01T13:13:19.187Z,19.38
2022-12-01T13:15:49.994Z,19.45
2022-12-01T13:18:29.896Z,19.98
2022-12-01T13:20:59.263Z,21.23
2022-12-01T13:23:27.576Z,22.00
2022-12-01T13:25:59.926Z,21.10
2022-12-01T13:28:35.975Z,22.23
2022-12-01T13:31:10.444Z,21.52
2022-12-01T13:33:40.267Z,21.40
2022-12-01T13:36:45.277Z,22.40
2022-12-01T13:39:15.769Z,22.30
2022-12-01T13:41:45.206Z,21.65
2022-12-01T13:44:31.617Z,22.83
2022-12-01T13:47:25.010Z,20.38
2022-12-01T13:49:53.889Z,20.67
2022-12-01T13:52:28.750Z,20.60
2022-12-01T13:55:08.646Z,21.35
2022-12-01T13:57:44.317Z,20.48
2022-12-01T14:00:33.623Z,19.95
2022-12-01T14:03:13.283Z,19.27
2022-12-01T14:05:40.756Z,18.90
2022-12-01T14:08:25.116Z,19.98
2022-12-01T14:11:09.436Z,19.45
2022-12-01T14:13:52.085Z,18.85
2022-12-01T14:16:20.010Z,19.63
2022-12-01T14:18:54.835Z,19.08
2022-12-01T14:21:41.811Z,20.85
2022-12-01T14:24:21.619Z,21.20
2022-12-01T14:26:49.643Z,20.73
2022-12-01T14:29:32.292Z,21.23
2022-12-01T14:32:04.258Z,19.50
2022-12-01T14:34:35.056Z,20.83
2022-12-01T14:37:20.763Z,21.83
2022-12-01T14:39:57.996Z,20.52
2022-12-01T14:42:55.228Z,19.70
2022-12-01T14:45:27.032Z,19.40
2022-12-01T14:48:03.054Z,18.92
2022-12-01T14:50:46.400Z,18.25
2022-12-01T14:53:22.548Z,17.58
2022-12-01T14:55:56.760Z,18.67
2022-12-01T14:58:29.295Z,17.23
2022-12-01T15:01:07.745Z,16.02
2022-12-01T15:03:49.235Z,15.00
2022-12-01T15:06:25.885Z,15.10
2022-12-01T15:09:34.022Z,13.30
2022-12-01T15:12:09.686Z,12.90
2022-12-01T15:14:38.496Z,14.10
2022-12-01T15:17:09.253Z,14.57
2022-12-01T15:19:40.358Z,16.85
2022-12-01T15:22:17.116Z,17.27
2022-12-01T15:24:46.760Z,16.70
2022-12-01T15:27:44.326Z,16.77
2022-12-01T15:30:16.033Z,13.55
2022-12-01T15:32:46.062Z,13.60
2022-12-01T15:35:22.449Z,14.10
2022-12-01T15:37:51.727Z,13.20
2022-12-01T15:41:06.165Z,14.07
2022-12-01T15:43:15.861Z,13.48
2022-12-01T15:45:57.568Z,12.52
2022-12-01T15:48:36.620Z,8.85
2022-12-01T15:51:12.432Z,6.00
2022-12-01T15:53:47.807Z,6.25
2022-12-01T15:56:15.736Z,5.70
2022-12-01T15:58:47.505Z,5.95
2022-12-01T16:01:21.483Z,5.18
2022-12-01T16:03:58.916Z,5.43
2022-12-01T16:06:38.858Z,7.18
2022-12-01T16:09:21.875Z,8.43
2022-12-01T16:12:20.026Z,7.88
2022-12-01T16:14:55.007Z,7.68
2022-12-01T16:17:24.627Z,8.05
2022-12-01T16:20:17.646Z,7.57
2022-12-01T16:22:53.144Z,7.72
2022-12-01T16:25:39.665Z,7.75
2022-12-01T16:28:18.195Z,7.28
2022-12-01T16:30:47.015Z,8.13
2022-12-01T16:33:22.506Z,8.10
2022-12-01T16:35:50.975Z,8.05
2022-12-01T16:38:23.645Z,9.25
2022-12-01T16:40:53.949Z,9.02
2022-12-01T16:45:58.209Z,8.97
2022-12-01T16:48:26.085Z,9.82
2022-12-01T16:50:55.035Z,11.13
2022-12-01T16:53:22.795Z,11.38
2022-12-01T16:55:58.682Z,11.80
2022-12-01T16:58:26.876Z,12.45
2022-12-01T17:00:54.923Z,12.40
2022-12-01T17:03:26.266Z,12.38
2022-12-01T17:05:54.508Z,12.10
2022-12-01T17:08:23.015Z,12.02
2022-12-01T17:10:51.834Z,12.10
2022-12-01T17:13:22.036Z,11.93
2022-12-01T17:15:53.460Z,14.43
2022-12-01T17:18:23.586Z,13.20
2022-12-01T17:21:01.837Z,13.07
2022-12-01T17:23:29.948Z,11.25
2022-12-01T17:25:57.646Z,11.75
2022-12-01T17:28:25.414Z,13.00
2022-12-01T17:30:53.085Z,12.60
2022-12-01T17:33:20.975Z,13.07
2022-12-01T17:35:50.285Z,13.02
2022-12-01T17:38:18.076Z,12.50
2022-12-01T17:40:45.686Z,11.90
2022-12-01T17:43:13.396Z,13.15
2022-12-01T17:45:42.415Z,13.68
2022-12-01T17:48:10.125Z,13.35
2022-12-01T17:50:38.718Z,13.73
2022-12-01T17:53:06.285Z,14.50
2022-12-01T17:55:33.676Z,15.48
2022-12-01T17:58:01.496Z,15.35
2022-12-01T18:00:29.475Z,16.73
2022-12-01T18:02:57.185Z,16.65
2022-12-01T18:05:25.495Z,18.27
2022-12-01T18:07:53.248Z,18.52
2022-12-01T18:10:20.921Z,18.30
2022-12-01T18:12:48.799Z,17.42
2022-12-01T18:15:18.077Z,18.52
2022-12-01T18:17:45.953Z,19.23
2022-12-01T18:20:13.975Z,17.20
2022-12-01T18:22:42.607Z,17.42
2022-12-01T18:25:11.076Z,18.27
2022-12-01T18:30:08.978Z,19.23
2022-12-01T18:32:37.596Z,20.38
2022-12-01T18:35:05.586Z,19.15
2022-12-01T18:37:33.040Z,20.88
2022-12-01T18:40:00.504Z,21.80
2022-12-01T18:42:27.796Z,19.75
2022-12-01T18:44:55.140Z,22.50
2022-12-01T18:47:22.338Z,20.15
2022-12-01T18:49:49.642Z,20.02
2022-12-01T18:52:16.961Z,19.67
2022-12-01T18:54:44.387Z,17.58
2022-12-01T18:57:12.289Z,16.98
2022-12-01T18:59:39.417Z,18.65
2022-12-01T19:02:09.424Z,18.70
2022-12-01T19:04:36.839Z,20.27
2022-12-01T19:07:04.163Z,20.90
2022-12-01T19:09:31.570Z,20.88
2022-12-01T19:12:01.243Z,21.13
2022-12-01T19:14:29.206Z,22.83
2022-12-01T19:16:57.011Z,23.73
2022-12-01T19:19:24.416Z,25.17
2022-12-01T19:21:51.828Z,24.17
2022-12-01T19:24:19.966Z,24.20
2022-12-01T19:26:47.249Z,23.88
2022-12-01T19:29:14.479Z,24.23
2022-12-01T19:31:41.901Z,22.95
2022-12-01T19:34:09.419Z,23.73
2022-12-01T19:36:36.777Z,22.02
2022-12-01T19:39:07.488Z,22.92
2022-12-01T19:41:37.449Z,23.85
2022-12-01T19:44:05.434Z,21.80
2022-12-01T19:46:33.119Z,20.88
2022-12-01T19:49:01.871Z,21.33
2022-12-01T19:51:35.444Z,22.48
2022-12-01T19:54:04.885Z,21.75
2022-12-01T19:56:32.596Z,22.07
2022-12-01T19:59:00.396Z,21.92
2022-12-01T20:01:28.725Z,24.48
2022-12-01T20:03:56.605Z,24.15
2022-12-01T20:06:27.185Z,23.17
2022-12-01T20:08:59.495Z,23.30
2022-12-01T20:11:33.171Z,22.50
2022-12-01T20:14:00.440Z,22.05
2022-12-01T20:16:28.770Z,23.80
2022-12-01T20:18:56.766Z,23.33
2022-12-01T20:21:27.111Z,22.63
2022-12-01T20:24:15.415Z,23.77
2022-12-01T20:26:46.600Z,24.65
2022-12-01T20:29:18.075Z,23.83
2022-12-01T20:31:46.313Z,25.27
2022-12-01T20:34:17.587Z,25.40
2022-12-01T20:36:46.208Z,26.58
2022-12-01T20:39:13.995Z,26.23
2022-12-01T20:41:42.348Z,24.65
2022-12-01T20:44:11.477Z,26.20
2022-12-01T20:46:41.235Z,26.83
2022-12-01T20:49:08.793Z,26.15
2022-12-01T20:51:36.038Z,24.17
2022-12-01T20:54:27.280Z,23.90
2022-12-01T20:56:52.662Z,24.63
2022-12-01T20:59:19.941Z,25.00
2022-12-01T21:01:47.107Z,24.00
2022-12-01T21:04:14.623Z,24.85
2022-12-01T21:06:42.434Z,23.35
2022-12-01T21:09:09.928Z,22.83
2022-12-01T21:12:03.980Z,23.45
2022-12-01T21:14:39.785Z,22.58
2022-12-01T21:17:30.037Z,21.98
2022-12-01T21:22:30.691Z,22.55
2022-12-01T21:25:07.812Z,23.70
2022-12-01T21:27:35.091Z,22.02
2022-12-01T21:30:08.593Z,23.00
2022-12-01T21:32:42.554Z,22.25
2022-12-01T21:35:25.103Z,22.30
2022-12-01T21:37:59.413Z,23.50
2022-12-01T21:40:27.790Z,21.83
2022-12-01T21:42:56.896Z,23.17
2022-12-01T21:45:30.423Z,22.80
2022-12-01T21:48:11.058Z,21.70
2022-12-01T21:50:38.327Z,22.27
2022-12-01T21:53:16.285Z,22.15
2022-12-01T21:55:46.428Z,23.05
2022-12-01T21:58:31.368Z,24.15
2022-12-01T22:00:59.756Z,21.85
2022-12-01T22:03:31.909Z,24.13
2022-12-01T22:06:28.216Z,23.35
2022-12-01T22:08:53.646Z,24.50
2022-12-01T22:11:25.307Z,23.58
2022-12-01T22:14:09.819Z,23.80
2022-12-01T22:16:53.404Z,23.80
2022-12-01T22:19:30.604Z,24.10
2022-12-01T22:22:03.384Z,24.23
2022-12-01T22:24:52.086Z,24.17
2022-12-01T22:27:19.987Z,24.50
2022-12-01T22:29:49.392Z,26.92
2022-12-01T22:32:16.539Z,25.37
2022-12-01T22:34:51.591Z,26.10
2022-12-01T22:37:24.745Z,26.15
2022-12-01T22:39:56.649Z,26.42
2022-12-01T22:42:33.631Z,27.45
2022-12-01T22:45:24.048Z,25.60
2022-12-01T22:47:56.526Z,27.05
2022-12-01T22:50:29.714Z,24.42
2022-12-01T22:53:22.078Z,23.90
2022-12-01T22:55:53.761Z,24.27
2022-12-01T22:58:28.173Z,25.02
2022-12-01T23:00:57.972Z,25.02
2022-12-01T23:03:26.875Z,25.90
2022-12-01T23:05:57.059Z,24.50
2022-12-01T23:11:04.745Z,24.83
2022-12-01T23:13:35.348Z,22.70
2022-12-01T23:16:05.716Z,25.25
2022-12-01T23:18:48.227Z,25.33
2022-12-01T23:21:31.114Z,26.33
2022-12-01T23:24:27.701Z,24.75
2022-12-01T23:27:00.432Z,21.98
2022-12-01T23:29:27.932Z,23.67
2022-12-01T23:31:55.472Z,22.85
2022-12-01T23:34:23.039Z,21.65
2022-12-01T23:36:51.261Z,19.15
2022-12-01T23:39:21.008Z,18.80
2022-12-01T23:41:51.311Z,21.35
2022-12-01T23:44:31.668Z,21.20
2022-12-01T23:46:59.192Z,19.95
2022-12-01T23:49:31.653Z,20.48
2022-12-01T23:52:02.527Z,19.70
2022-12-01T23:54:39.095Z,19.02
2022-12-01T23:57:21.914Z,21.40
